createdAt,value
2019-03-01T00:00:16.945Z,8.74
2019-03-01T00:02:45.126Z,8.74
2019-03-01T00:05:47.294Z,8.76
2019-03-01T00:08:15.861Z,8.75
2019-03-01T00:11:00.368Z,8.72
2019-03-01T00:13:50.003Z,8.75
2019-03-01T00:16:25.768Z,8.71
2019-03-01T00:19:07.717Z,8.67
2019-03-01T00:21:41.700Z,8.71
2019-03-01T00:24:11.604Z,8.72
2019-03-01T00:26:50.462Z,8.71
2019-03-01T00:29:26.134Z,8.72
2019-03-01T00:32:14.273Z,8.66
2019-03-01T00:34:52.759Z,8.64
2019-03-01T00:37:28.683Z,8.72
2019-03-01T00:40:27.544Z,8.64
2019-03-01T00:43:32.617Z,8.65
2019-03-01T00:45:58.741Z,8.65
2019-03-01T00:48:24.929Z,8.62
2019-03-01T00:50:51.151Z,8.65
2019-03-01T00:53:17.444Z,8.61
2019-03-01T00:55:43.733Z,8.57
2019-03-01T00:58:10.111Z,8.52
2019-03-01T01:00:42.843Z,8.53
2019-03-01T01:03:09.177Z,8.49
2019-03-01T01:05:35.483Z,8.55
2019-03-01T01:08:01.700Z,8.44
2019-03-01T01:10:27.913Z,8.44
2019-03-01T01:12:54.136Z,8.33
2019-03-01T01:15:20.408Z,8.34
2019-03-01T01:17:46.595Z,8.34
2019-03-01T01:20:12.882Z,8.33
2019-03-01T01:22:39.136Z,8.40
2019-03-01T01:25:05.452Z,8.34
2019-03-01T01:27:31.785Z,8.35
2019-03-01T01:29:58.013Z,8.42
2019-03-01T01:32:24.151Z,8.42
2019-03-01T01:34:50.226Z,8.42
2019-03-01T01:37:16.322Z,8.58
2019-03-01T01:39:42.525Z,8.48
2019-03-01T01:42:08.739Z,8.50
2019-03-01T01:44:34.836Z,8.52
2019-03-01T01:47:01.141Z,8.44
2019-03-01T01:49:27.251Z,8.30
2019-03-01T01:51:53.356Z,8.30
2019-03-01T01:54:19.568Z,8.24
2019-03-01T01:56:45.946Z,8.28
2019-03-01T01:59:12.145Z,8.28
2019-03-01T02:01:38.282Z,8.32
2019-03-01T02:04:04.789Z,8.33
2019-03-01T02:06:30.989Z,8.29
2019-03-01T02:08:57.229Z,8.38
2019-03-01T02:11:23.642Z,8.38
2019-03-01T02:13:49.751Z,8.43
2019-03-01T02:16:16.050Z,8.38
2019-03-01T02:18:42.162Z,8.44
2019-03-01T02:21:08.493Z,8.38
2019-03-01T02:23:34.889Z,8.47
2019-03-01T02:26:01.084Z,8.39
2019-03-01T02:28:27.177Z,8.40
2019-03-01T02:30:57.116Z,8.46
2019-03-01T02:33:23.210Z,8.43
2019-03-01T02:35:49.458Z,8.37
2019-03-01T02:38:15.817Z,8.39
2019-03-01T02:40:41.911Z,8.40
2019-03-01T02:43:08.296Z,8.43
2019-03-01T02:45:34.608Z,8.40
2019-03-01T02:48:00.796Z,8.41
2019-03-01T02:50:27.230Z,8.41
2019-03-01T02:52:53.520Z,8.43
2019-03-01T02:55:20.417Z,8.45
2019-03-01T02:57:46.817Z,8.45
2019-03-01T03:00:29.419Z,8.44
2019-03-01T03:02:55.719Z,8.43
2019-03-01T03:05:22.012Z,8.42
2019-03-01T03:07:50.127Z,8.41
2019-03-01T03:10:16.755Z,8.40
2019-03-01T03:12:44.158Z,8.46
2019-03-01T03:15:13.143Z,8.48
2019-03-01T03:17:39.284Z,8.48
2019-03-01T03:20:07.991Z,8.43
2019-03-01T03:22:34.098Z,8.36
2019-03-01T03:25:00.547Z,8.30
2019-03-01T03:27:26.678Z,8.31
2019-03-01T03:29:52.795Z,8.33
2019-03-01T03:32:19.018Z,8.40
2019-03-01T03:34:45.209Z,8.50
2019-03-01T03:37:11.296Z,8.43
2019-03-01T03:39:37.516Z,8.45
2019-03-01T03:42:04.143Z,8.38
2019-03-01T03:44:30.449Z,8.41
2019-03-01T03:46:56.566Z,8.36
2019-03-01T03:49:22.958Z,8.38
2019-03-01T03:51:49.314Z,8.37
2019-03-01T03:54:15.406Z,8.36
2019-03-01T03:56:41.602Z,8.41
2019-03-01T03:59:07.814Z,8.43
2019-03-01T04:01:33.994Z,8.44
2019-03-01T04:04:00.303Z,8.46
2019-03-01T04:06:26.581Z,8.40
2019-03-01T04:08:52.784Z,8.29
2019-03-01T04:11:18.989Z,8.29
2019-03-01T04:13:45.287Z,8.26
2019-03-01T04:16:11.375Z,8.30
2019-03-01T04:18:37.487Z,8.21
2019-03-01T04:21:03.567Z,8.19
2019-03-01T04:23:29.784Z,8.18
2019-03-01T04:25:55.898Z,8.13
2019-03-01T04:28:21.993Z,8.16
2019-03-01T04:30:48.091Z,8.12
2019-03-01T04:33:14.479Z,8.14
2019-03-01T04:35:40.701Z,8.15
2019-03-01T04:38:06.873Z,8.08
2019-03-01T04:40:33.009Z,8.10
2019-03-01T04:42:59.328Z,8.08
2019-03-01T04:45:25.457Z,8.07
2019-03-01T04:47:51.653Z,8.05
2019-03-01T04:50:17.871Z,8.04
2019-03-01T04:52:43.990Z,8.05
2019-03-01T04:55:19.362Z,7.98
2019-03-01T04:57:45.469Z,7.94
2019-03-01T05:00:15.534Z,7.95
2019-03-01T05:02:42.933Z,7.91
2019-03-01T05:05:09.269Z,7.92
2019-03-01T05:07:35.384Z,7.89
2019-03-01T05:10:02.118Z,7.96
2019-03-01T05:12:29.345Z,8.01
2019-03-01T05:14:55.590Z,8.05
2019-03-01T05:17:21.808Z,8.14
2019-03-01T05:19:48.087Z,8.21
2019-03-01T05:22:14.387Z,8.32
2019-03-01T05:24:40.685Z,8.40
2019-03-01T05:27:07.049Z,8.42
2019-03-01T05:29:33.430Z,8.45
2019-03-01T05:31:59.535Z,8.39
2019-03-01T05:34:25.627Z,8.47
2019-03-01T05:36:51.731Z,8.40
2019-03-01T05:39:18.092Z,8.43
2019-03-01T05:41:44.305Z,8.44
2019-03-01T05:44:10.636Z,8.39
2019-03-01T05:46:36.988Z,8.38
2019-03-01T05:49:04.438Z,8.42
2019-03-01T05:51:30.750Z,8.31
2019-03-01T05:53:56.985Z,8.35
2019-03-01T05:56:23.203Z,8.24
2019-03-01T05:58:53.162Z,8.25
2019-03-01T06:01:26.003Z,8.20
2019-03-01T06:03:55.772Z,8.18
2019-03-01T06:06:48.397Z,8.22
2019-03-01T06:09:36.619Z,8.26
2019-03-01T06:12:35.982Z,8.31
2019-03-01T06:15:15.598Z,8.35
2019-03-01T06:17:54.452Z,8.42
2019-03-01T06:20:33.682Z,8.52
2019-03-01T06:23:15.159Z,8.62
2019-03-01T06:26:10.596Z,8.57
2019-03-01T06:28:43.312Z,8.42
2019-03-01T06:31:50.076Z,8.24
2019-03-01T06:34:44.478Z,8.20
2019-03-01T06:37:33.884Z,8.10
2019-03-01T06:40:35.061Z,8.04
2019-03-01T06:43:26.423Z,8.07
2019-03-01T06:46:14.557Z,8.04
2019-03-01T06:48:51.716Z,8.08
2019-03-01T06:51:28.782Z,7.97
2019-03-01T06:53:53.535Z,7.93
2019-03-01T06:56:19.721Z,7.95
2019-03-01T06:58:46.073Z,7.91
2019-03-01T07:01:14.204Z,7.92
2019-03-01T07:03:40.484Z,7.94
2019-03-01T07:06:07.703Z,7.96
2019-03-01T07:08:34.260Z,7.98
2019-03-01T07:11:01.681Z,8.06
2019-03-01T07:13:27.872Z,8.10
2019-03-01T07:15:54.084Z,8.10
2019-03-01T07:18:20.305Z,8.13
2019-03-01T07:20:46.402Z,8.13
2019-03-01T07:23:12.635Z,8.14
2019-03-01T07:25:38.829Z,8.19
2019-03-01T07:28:05.272Z,8.19
2019-03-01T07:30:31.706Z,8.22
2019-03-01T07:32:57.828Z,8.21
2019-03-01T07:35:24.033Z,8.27
2019-03-01T07:37:50.230Z,8.30
2019-03-01T07:40:16.502Z,8.38
2019-03-01T07:42:42.619Z,8.35
2019-03-01T07:45:12.839Z,8.42
2019-03-01T07:47:38.988Z,8.24
2019-03-01T07:50:08.996Z,8.30
2019-03-01T07:52:36.222Z,8.33
2019-03-01T07:55:11.201Z,8.39
2019-03-01T07:57:37.597Z,8.50
2019-03-01T08:00:14.057Z,8.55
2019-03-01T08:02:40.718Z,8.50
2019-03-01T08:05:09.822Z,8.67
2019-03-01T08:07:39.237Z,8.61
2019-03-01T08:10:09.152Z,8.57
2019-03-01T08:12:38.707Z,8.70
2019-03-01T08:15:13.190Z,8.61
2019-03-01T08:17:39.880Z,8.70
2019-03-01T08:20:09.546Z,8.52
2019-03-01T08:22:47.482Z,8.44
2019-03-01T08:25:08.018Z,8.43
2019-03-01T08:27:34.380Z,8.47
2019-03-01T08:30:00.482Z,8.64
2019-03-01T08:32:33.036Z,8.54
2019-03-01T08:34:59.219Z,8.69
2019-03-01T08:37:25.312Z,8.61
2019-03-01T08:39:55.060Z,8.73
2019-03-01T08:42:21.197Z,8.75
2019-03-01T08:44:47.403Z,8.66
2019-03-01T08:47:13.613Z,8.70
2019-03-01T08:49:39.835Z,8.71
2019-03-01T08:52:08.318Z,8.76
2019-03-01T08:54:34.584Z,8.85
2019-03-01T08:57:06.543Z,8.87
2019-03-01T08:59:33.764Z,8.71
2019-03-01T09:01:59.966Z,8.68
2019-03-01T09:04:37.560Z,8.76
2019-03-01T09:06:59.319Z,8.81
2019-03-01T09:09:25.642Z,8.82
2019-03-01T09:11:51.991Z,8.94
2019-03-01T09:14:18.578Z,8.90
2019-03-01T09:16:44.799Z,9.00
2019-03-01T09:19:11.082Z,8.88
2019-03-01T09:21:39.383Z,8.95
2019-03-01T09:24:05.892Z,9.06
2019-03-01T09:26:32.120Z,9.00
2019-03-01T09:28:58.338Z,9.03
2019-03-01T09:31:24.553Z,9.05
2019-03-01T09:33:53.734Z,9.18
2019-03-01T09:36:35.719Z,9.09
2019-03-01T09:39:04.405Z,9.13
2019-03-01T09:41:31.914Z,9.18
2019-03-01T09:43:59.673Z,9.13
2019-03-01T09:46:28.218Z,9.01
2019-03-01T09:48:54.356Z,8.91
2019-03-01T09:51:20.795Z,8.72
2019-03-01T09:53:47.204Z,8.85
2019-03-01T09:56:13.810Z,8.79
2019-03-01T09:58:40.167Z,8.81
2019-03-01T10:01:12.174Z,8.85
2019-03-01T10:03:38.574Z,8.81
2019-03-01T10:06:04.916Z,8.86
2019-03-01T10:08:31.266Z,8.98
2019-03-01T10:10:57.462Z,9.01
2019-03-01T10:13:23.716Z,9.04
2019-03-01T10:15:50.059Z,9.14
2019-03-01T10:18:16.247Z,9.15
2019-03-01T10:20:42.834Z,9.24
2019-03-01T10:23:09.209Z,9.32
2019-03-01T10:25:35.547Z,9.45
2019-03-01T10:28:01.629Z,9.56
2019-03-01T10:30:27.840Z,9.65
2019-03-01T10:32:54.267Z,9.70
2019-03-01T10:35:20.580Z,9.85
2019-03-01T10:37:47.805Z,9.89
2019-03-01T10:40:22.703Z,9.90
2019-03-01T10:42:49.064Z,10.06
2019-03-01T10:45:21.701Z,10.06
2019-03-01T10:47:48.117Z,10.08
2019-03-01T10:50:14.360Z,9.84
2019-03-01T10:52:40.671Z,9.89
2019-03-01T10:55:17.367Z,9.81
2019-03-01T10:57:43.956Z,9.93
2019-03-01T11:00:14.170Z,9.91
2019-03-01T11:02:40.630Z,9.86
2019-03-01T11:05:06.983Z,9.87
2019-03-01T11:07:33.228Z,9.83
2019-03-01T11:09:59.559Z,10.08
2019-03-01T11:12:25.792Z,10.16
2019-03-01T11:14:52.005Z,10.19
2019-03-01T11:17:18.241Z,10.00
2019-03-01T11:19:44.599Z,10.14
2019-03-01T11:22:10.821Z,10.15
2019-03-01T11:24:37.100Z,10.31
2019-03-01T11:27:12.593Z,10.31
2019-03-01T11:29:31.447Z,10.25
2019-03-01T11:31:57.556Z,10.37
2019-03-01T11:34:23.675Z,10.31
2019-03-01T11:36:50.987Z,9.98
2019-03-01T11:39:17.945Z,9.93
2019-03-01T11:41:44.097Z,9.80
2019-03-01T11:44:10.453Z,9.69
2019-03-01T11:46:36.776Z,9.56
2019-03-01T11:49:03.185Z,9.67
2019-03-01T11:51:30.482Z,9.42
2019-03-01T11:53:57.887Z,9.56
2019-03-01T11:56:24.324Z,9.53
2019-03-01T11:58:50.425Z,9.49
2019-03-01T12:01:17.535Z,9.40
2019-03-01T12:03:44.731Z,9.21
2019-03-01T12:06:11.442Z,9.17
2019-03-01T12:08:37.572Z,9.14
2019-03-01T12:11:04.076Z,8.97
2019-03-01T12:13:30.444Z,8.76
2019-03-01T12:15:56.609Z,8.78
2019-03-01T12:18:22.977Z,8.82
2019-03-01T12:20:55.171Z,8.78
2019-03-01T12:23:33.230Z,8.61
2019-03-01T12:26:00.132Z,8.44
2019-03-01T12:28:27.094Z,8.25
2019-03-01T12:51:01.709Z,7.56
2019-03-01T12:53:28.171Z,7.54
2019-03-01T12:55:54.576Z,7.42
2019-03-01T12:58:20.878Z,7.42
2019-03-01T13:00:50.568Z,7.38
2019-03-01T13:03:17.692Z,7.16
2019-03-01T13:05:44.038Z,7.23
2019-03-01T13:08:12.579Z,7.17
2019-03-01T13:10:40.336Z,7.08
2019-03-01T13:13:08.285Z,7.10
2019-03-01T13:15:35.071Z,7.10
2019-03-01T13:18:03.319Z,7.10
2019-03-01T13:20:29.995Z,7.13
2019-03-01T13:22:56.504Z,7.11
2019-03-01T13:25:25.822Z,7.12
2019-03-01T13:27:52.617Z,7.10
2019-03-01T13:30:23.683Z,7.03
2019-03-01T13:32:50.021Z,6.91
2019-03-01T13:35:17.635Z,6.86
2019-03-01T13:37:45.066Z,6.92
2019-03-01T13:40:13.576Z,6.95
2019-03-01T13:42:39.836Z,7.04
2019-03-01T13:45:11.870Z,6.97
2019-03-01T13:47:37.344Z,7.03
2019-03-01T13:50:07.154Z,7.02
2019-03-01T13:52:33.561Z,7.02
2019-03-01T13:54:59.878Z,6.94
2019-03-01T13:57:28.039Z,6.89
2019-03-01T13:59:54.459Z,6.83
2019-03-01T14:02:20.910Z,6.74
2019-03-01T14:04:47.089Z,6.70
2019-03-01T14:07:13.436Z,6.68
2019-03-01T14:09:39.691Z,6.72
2019-03-01T14:12:05.840Z,6.69
2019-03-01T14:14:31.938Z,6.42
2019-03-01T14:16:58.231Z,6.41
2019-03-01T14:19:24.479Z,6.44
2019-03-01T14:21:50.662Z,6.43
2019-03-01T14:24:16.791Z,6.44
2019-03-01T14:26:42.923Z,6.40
2019-03-01T14:29:09.227Z,6.49
2019-03-01T14:31:39.809Z,6.62
2019-03-01T14:34:08.243Z,6.50
2019-03-01T14:36:33.571Z,6.54
2019-03-01T14:38:59.890Z,6.52
2019-03-01T14:41:27.290Z,6.55
2019-03-01T14:43:58.782Z,6.23
2019-03-01T14:46:22.098Z,6.26
2019-03-01T14:48:48.402Z,6.38
2019-03-01T14:51:14.623Z,6.44
2019-03-01T14:53:40.845Z,6.43
2019-03-01T14:56:10.759Z,6.27
2019-03-01T14:58:58.535Z,6.31
2019-03-01T15:01:47.526Z,6.22
2019-03-01T15:04:13.945Z,6.23
2019-03-01T15:06:40.219Z,6.28
2019-03-01T15:09:08.166Z,6.20
2019-03-01T15:11:36.315Z,6.16
2019-03-01T15:14:02.829Z,6.18
2019-03-01T15:16:29.149Z,6.12
2019-03-01T15:18:55.471Z,6.19
2019-03-01T15:21:21.809Z,6.17
2019-03-01T15:23:48.391Z,6.07
2019-03-01T15:26:14.630Z,5.81
2019-03-01T15:28:44.555Z,5.79
2019-03-01T15:31:10.900Z,5.70
2019-03-01T15:33:37.050Z,5.59
2019-03-01T15:36:04.466Z,5.50
2019-03-01T15:38:30.829Z,5.27
2019-03-01T15:40:57.148Z,5.36
2019-03-01T15:43:26.568Z,5.36
2019-03-01T15:45:51.715Z,5.56
2019-03-01T15:48:18.151Z,5.45
2019-03-01T15:50:44.346Z,5.35
2019-03-01T15:53:14.577Z,5.48
2019-03-01T15:55:40.940Z,5.52
2019-03-01T15:58:07.143Z,5.48
2019-03-01T16:00:33.559Z,5.58
2019-03-01T16:02:59.852Z,5.61
2019-03-01T16:05:26.102Z,5.59
2019-03-01T16:07:52.249Z,5.58
2019-03-01T16:10:19.318Z,5.69
2019-03-01T16:12:47.221Z,5.74
2019-03-01T16:15:14.764Z,5.68
2019-03-01T16:17:41.165Z,5.74
2019-03-01T16:20:12.965Z,5.57
2019-03-01T16:22:40.814Z,5.51
2019-03-01T16:25:13.041Z,5.60
2019-03-01T16:27:40.554Z,5.62
2019-03-01T16:30:09.790Z,5.72
2019-03-01T16:32:36.189Z,5.73
2019-03-01T16:35:05.312Z,5.75
2019-03-01T16:37:31.742Z,5.61
2019-03-01T16:40:00.235Z,5.62
2019-03-01T16:42:27.483Z,5.68
2019-03-01T16:44:53.667Z,5.54
2019-03-01T16:47:19.897Z,5.36
2019-03-01T16:49:46.129Z,5.31
2019-03-01T16:52:13.348Z,5.11
2019-03-01T16:54:39.672Z,5.16
2019-03-01T16:57:06.220Z,5.24
2019-03-01T16:59:32.536Z,5.20
2019-03-01T17:01:58.863Z,5.27
2019-03-01T17:04:27.418Z,5.30
2019-03-01T17:07:05.549Z,5.35
2019-03-01T17:09:34.998Z,5.16
2019-03-01T17:12:05.870Z,5.10
2019-03-01T17:14:34.911Z,5.05
2019-03-01T17:17:00.729Z,5.00
2019-03-01T17:19:31.835Z,5.01
2019-03-01T17:21:58.042Z,4.73
2019-03-01T17:24:24.376Z,4.83
2019-03-01T17:26:50.706Z,4.62
2019-03-01T17:29:16.912Z,4.64
2019-03-01T17:31:43.174Z,4.73
2019-03-01T17:34:09.536Z,4.77
2019-03-01T17:36:35.817Z,4.78
2019-03-01T17:39:06.116Z,4.43
2019-03-01T17:41:34.232Z,4.40
2019-03-01T17:44:08.598Z,4.40
2019-03-01T17:46:34.876Z,4.43
2019-03-01T17:49:07.008Z,4.45
2019-03-01T17:51:33.173Z,4.56
2019-03-01T17:54:07.696Z,4.72
2019-03-01T17:56:36.691Z,4.58
2019-03-01T17:59:11.610Z,4.65
2019-03-01T18:01:39.170Z,4.72
2019-03-01T18:04:06.874Z,4.73
2019-03-01T18:06:33.324Z,4.61
2019-03-01T18:08:59.762Z,4.62
2019-03-01T18:11:26.196Z,4.67
2019-03-01T18:14:00.351Z,4.77
2019-03-01T18:16:25.712Z,4.66
2019-03-01T18:19:09.166Z,4.68
2019-03-01T18:21:35.500Z,4.61
2019-03-01T18:24:11.019Z,4.59
2019-03-01T18:26:40.024Z,4.65
2019-03-01T18:29:08.382Z,4.61
2019-03-01T18:31:35.565Z,4.55
2019-03-01T18:34:06.560Z,4.55
2019-03-01T18:36:33.029Z,4.61
2019-03-01T18:39:00.192Z,4.53
2019-03-01T18:41:27.413Z,4.57
2019-03-01T18:43:54.713Z,4.58
2019-03-01T18:46:20.934Z,4.57
2019-03-01T18:48:47.229Z,4.62
2019-03-01T18:51:13.377Z,4.62
2019-03-01T18:53:39.770Z,4.64
2019-03-01T18:56:11.251Z,4.72
2019-03-01T18:58:38.582Z,4.65
2019-03-01T19:01:07.815Z,4.71
2019-03-01T19:03:36.491Z,4.82
2019-03-01T19:06:04.735Z,4.69
2019-03-01T19:08:31.260Z,4.70
2019-03-01T19:10:59.745Z,4.76
2019-03-01T19:13:25.838Z,4.75
2019-03-01T19:15:54.594Z,4.74
2019-03-01T19:18:20.402Z,4.71
2019-03-01T19:20:49.147Z,4.69
2019-03-01T19:23:15.697Z,4.75
2019-03-01T19:25:41.946Z,4.78
2019-03-01T19:28:08.412Z,4.71
2019-03-01T19:30:34.768Z,4.86
2019-03-01T19:33:02.200Z,4.87
2019-03-01T19:35:33.299Z,4.78
2019-03-01T19:37:59.694Z,4.82
2019-03-01T19:40:25.891Z,4.82
2019-03-01T19:42:52.373Z,4.87
2019-03-01T19:45:18.948Z,4.81
2019-03-01T19:47:45.183Z,4.80
2019-03-01T19:50:13.620Z,4.64
2019-03-01T19:52:39.955Z,4.73
2019-03-01T19:55:11.770Z,4.71
2019-03-01T19:57:37.621Z,4.84
2019-03-01T20:00:14.035Z,4.73
2019-03-01T20:02:40.462Z,4.73
2019-03-01T20:05:09.802Z,4.66
2019-03-01T20:07:36.126Z,4.57
2019-03-01T20:10:05.792Z,4.61
2019-03-01T20:12:32.209Z,4.59
2019-03-01T20:14:58.435Z,4.59
2019-03-01T20:17:25.219Z,4.55
2019-03-01T20:19:53.609Z,4.78
2019-03-01T20:22:19.659Z,4.72
2019-03-01T20:24:45.984Z,4.71
2019-03-01T20:27:12.280Z,4.72
2019-03-01T20:29:38.640Z,4.64
2019-03-01T20:32:04.976Z,4.76
2019-03-01T20:34:31.421Z,4.66
2019-03-01T20:36:59.398Z,4.69
2019-03-01T20:39:25.706Z,4.77
2019-03-01T20:41:52.027Z,4.80
2019-03-01T20:44:19.860Z,4.65
2019-03-01T20:46:46.200Z,4.54
2019-03-01T20:49:12.658Z,4.62
2019-03-01T20:51:39.151Z,4.53
2019-03-01T20:54:05.632Z,4.57
2019-03-01T20:56:33.913Z,4.52
2019-03-01T20:59:00.180Z,4.45
2019-03-01T21:01:27.765Z,4.34
2019-03-01T21:03:54.003Z,4.43
2019-03-01T21:06:20.438Z,4.40
2019-03-01T21:08:46.614Z,4.38
2019-03-01T21:11:12.979Z,4.48
2019-03-01T21:13:39.097Z,4.55
2019-03-01T21:16:05.435Z,4.63
2019-03-01T21:18:34.170Z,4.61
2019-03-01T21:21:00.035Z,4.64
2019-03-01T21:23:26.292Z,4.64
2019-03-01T21:25:52.669Z,4.70
2019-03-01T21:28:18.877Z,4.72
2019-03-01T21:30:45.670Z,4.69
2019-03-01T21:33:11.967Z,4.71
2019-03-01T21:35:38.286Z,4.75
2019-03-01T21:38:04.740Z,4.74
2019-03-01T21:40:31.478Z,4.74
2019-03-01T21:43:00.149Z,4.76
2019-03-01T21:45:26.513Z,4.87
2019-03-01T21:47:52.967Z,4.82
2019-03-01T21:50:19.373Z,4.81
2019-03-01T21:52:45.685Z,4.81
2019-03-01T21:55:14.202Z,4.72
2019-03-01T21:57:40.590Z,4.73
2019-03-01T22:00:13.448Z,4.77
2019-03-01T22:02:41.815Z,4.77
2019-03-01T22:05:13.506Z,4.83
2019-03-01T22:07:38.519Z,4.77
2019-03-01T22:10:10.537Z,4.67
2019-03-01T22:12:37.290Z,4.56
2019-03-01T22:15:10.133Z,4.46
2019-03-01T22:17:36.375Z,4.30
2019-03-01T22:20:05.657Z,4.32
2019-03-01T22:22:34.191Z,4.39
2019-03-01T22:25:02.205Z,4.28
2019-03-01T22:27:28.874Z,4.33
2019-03-01T22:29:56.403Z,4.25
2019-03-01T22:32:22.691Z,4.27
2019-03-01T22:34:49.176Z,4.29
2019-03-01T22:37:15.297Z,4.24
2019-03-01T22:39:42.831Z,4.22
2019-03-01T22:42:11.444Z,4.24
2019-03-01T22:44:37.373Z,4.24
2019-03-01T22:47:03.711Z,4.28
2019-03-01T22:49:31.808Z,4.26
2019-03-01T22:51:58.149Z,4.30
2019-03-01T22:54:24.357Z,4.28
2019-03-01T22:56:50.673Z,4.29
2019-03-01T22:59:16.791Z,4.28
2019-03-01T23:01:43.093Z,4.24
2019-03-01T23:04:09.641Z,4.31
2019-03-01T23:06:35.732Z,4.38
2019-03-01T23:09:04.219Z,4.26
2019-03-01T23:11:33.584Z,4.31
2019-03-01T23:14:00.017Z,4.19
2019-03-01T23:16:26.115Z,4.30
2019-03-01T23:18:56.737Z,4.31
2019-03-01T23:21:20.449Z,4.31
2019-03-01T23:23:46.697Z,4.21
2019-03-01T23:26:12.895Z,4.13
2019-03-01T23:28:40.798Z,4.11
2019-03-01T23:31:07.704Z,4.23
2019-03-01T23:33:33.919Z,4.23
2019-03-01T23:36:00.279Z,4.22
2019-03-01T23:38:26.473Z,4.17
2019-03-01T23:40:52.571Z,4.05
2019-03-01T23:43:18.675Z,3.95
2019-03-01T23:45:44.765Z,3.98
2019-03-01T23:48:13.640Z,3.91
2019-03-01T23:50:39.157Z,3.97
2019-03-01T23:53:05.375Z,4.02
2019-03-01T23:55:31.572Z,3.93
2019-03-01T23:58:05.789Z,3.91
